createdAt,value
2018-11-29T00:00:07.357Z,878.00
2018-11-29T00:01:07.663Z,866.00
2018-11-29T00:02:09.104Z,874.00
2018-11-29T00:03:09.650Z,874.00
2018-11-29T00:04:08.972Z,874.00
2018-11-29T00:05:10.303Z,873.00
2018-11-29T00:06:10.634Z,873.00
2018-11-29T00:07:10.967Z,873.00
2018-11-29T00:08:11.476Z,873.00
2018-11-29T00:09:11.872Z,873.00
2018-11-29T00:10:12.317Z,873.00
2018-11-29T00:11:12.637Z,873.00
2018-11-29T00:12:13.185Z,873.00
2018-11-29T00:13:13.479Z,871.00
2018-11-29T00:13:21.942Z,871.00
2018-11-29T00:14:23.284Z,871.00
2018-11-29T00:15:23.588Z,872.00
2018-11-29T00:16:24.413Z,871.00
2018-11-29T00:17:25.212Z,871.00
2018-11-29T00:18:25.573Z,871.00
2018-11-29T00:19:25.868Z,871.00
2018-11-29T00:20:26.200Z,871.00
2018-11-29T00:21:26.531Z,871.00
2018-11-29T00:22:26.780Z,871.00
2018-11-29T00:23:27.406Z,871.00
2018-11-29T00:24:27.955Z,871.00
2018-11-29T00:25:27.216Z,872.00
2018-11-29T00:26:27.693Z,871.00
2018-11-29T00:27:28.941Z,873.00
2018-11-29T00:28:29.672Z,873.00
2018-11-29T00:29:30.195Z,872.00
2018-11-29T00:30:29.843Z,871.00
2018-11-29T00:31:31.384Z,871.00
2018-11-29T00:32:31.721Z,862.00
2018-11-29T00:33:32.010Z,873.00
2018-11-29T00:34:32.567Z,872.00
2018-11-29T00:35:32.971Z,871.00
2018-11-29T00:36:33.364Z,871.00
2018-11-29T00:37:33.859Z,871.00
2018-11-29T00:38:33.235Z,871.00
2018-11-29T00:39:33.507Z,871.00
2018-11-29T00:40:34.895Z,871.00
2018-11-29T00:41:35.312Z,871.00
2018-11-29T00:42:36.362Z,871.00
2018-11-29T00:43:35.715Z,873.00
2018-11-29T00:44:36.406Z,873.00
2018-11-29T00:45:37.851Z,873.00
2018-11-29T00:46:38.323Z,874.00
2018-11-29T00:47:38.626Z,873.00
2018-11-29T00:48:38.918Z,873.00
2018-11-29T00:49:39.712Z,873.00
2018-11-29T00:50:40.217Z,871.00
2018-11-29T00:51:39.451Z,871.00
2018-11-29T00:52:40.881Z,871.00
2018-11-29T00:53:41.166Z,873.00
2018-11-29T00:54:41.560Z,872.00
2018-11-29T00:55:41.927Z,873.00
2018-11-29T00:56:42.248Z,873.00
2018-11-29T00:57:42.620Z,873.00
2018-11-29T00:58:42.876Z,872.00
2018-11-29T00:59:43.311Z,871.00
2018-11-29T01:00:43.735Z,871.00
2018-11-29T01:01:44.037Z,872.00
2018-11-29T01:02:44.331Z,864.00
2018-11-29T01:03:44.642Z,873.00
2018-11-29T01:04:45.114Z,871.00
2018-11-29T01:04:53.446Z,872.00
2018-11-29T01:05:54.069Z,874.00
2018-11-29T01:06:55.473Z,878.00
2018-11-29T01:07:54.832Z,877.00
2018-11-29T01:08:56.128Z,877.00
2018-11-29T01:09:56.472Z,874.00
2018-11-29T01:10:57.119Z,874.00
2018-11-29T01:11:57.629Z,873.00
2018-11-29T01:12:57.898Z,873.00
2018-11-29T01:13:57.162Z,873.00
2018-11-29T01:14:58.958Z,873.00
2018-11-29T01:15:58.924Z,876.00
2018-11-29T01:17:00.375Z,876.00
2018-11-29T01:18:00.689Z,874.00
2018-11-29T01:19:01.053Z,874.00
2018-11-29T01:20:01.390Z,874.00
2018-11-29T01:21:00.890Z,874.00
2018-11-29T01:22:03.044Z,874.00
2018-11-29T01:23:02.071Z,873.00
2018-11-29T01:24:03.440Z,873.00
2018-11-29T01:25:03.704Z,873.00
2018-11-29T01:26:04.821Z,874.00
2018-11-29T01:27:04.484Z,874.00
2018-11-29T01:28:05.908Z,874.00
2018-11-29T01:29:05.408Z,873.00
2018-11-29T01:30:05.649Z,873.00
2018-11-29T01:31:07.054Z,873.00
2018-11-29T01:32:07.385Z,873.00
2018-11-29T01:33:07.832Z,873.00
2018-11-29T01:34:07.906Z,878.00
2018-11-29T01:35:08.539Z,880.00
2018-11-29T01:36:09.051Z,879.00
2018-11-29T01:37:09.287Z,880.00
2018-11-29T01:38:10.071Z,879.00
2018-11-29T01:39:10.683Z,878.00
2018-11-29T01:40:11.147Z,876.00
2018-11-29T01:41:11.430Z,876.00
2018-11-29T01:42:11.673Z,876.00
2018-11-29T01:43:12.131Z,874.00
2018-11-29T01:44:12.477Z,874.00
2018-11-29T01:45:12.664Z,874.00
2018-11-29T01:46:13.100Z,874.00
2018-11-29T01:47:13.550Z,873.00
2018-11-29T01:48:13.904Z,874.00
2018-11-29T01:49:14.656Z,876.00
2018-11-29T01:50:15.220Z,877.00
2018-11-29T01:51:15.253Z,876.00
2018-11-29T01:52:15.677Z,874.00
2018-11-29T01:53:15.323Z,874.00
2018-11-29T01:54:16.600Z,874.00
2018-11-29T01:55:16.934Z,874.00
2018-11-29T01:56:16.410Z,874.00
2018-11-29T01:57:16.784Z,874.00
2018-11-29T01:58:17.207Z,873.00
2018-11-29T01:59:18.500Z,873.00
2018-11-29T01:59:26.911Z,873.00
2018-11-29T02:00:28.128Z,874.00
2018-11-29T02:01:28.407Z,874.00
2018-11-29T02:02:27.624Z,874.00
2018-11-29T02:03:28.884Z,873.00
2018-11-29T02:04:29.693Z,873.00
2018-11-29T02:05:30.055Z,873.00
2018-11-29T02:06:30.709Z,872.00
2018-11-29T02:07:30.949Z,873.00
2018-11-29T02:08:31.330Z,874.00
2018-11-29T02:09:31.715Z,878.00
2018-11-29T02:10:31.957Z,876.00
2018-11-29T02:11:32.877Z,874.00
2018-11-29T02:12:33.191Z,874.00
2018-11-29T02:13:33.575Z,874.00
2018-11-29T02:14:33.841Z,873.00
2018-11-29T02:15:34.339Z,873.00
2018-11-29T02:16:34.787Z,873.00
2018-11-29T02:17:35.215Z,873.00
2018-11-29T02:18:36.080Z,873.00
2018-11-29T02:19:36.380Z,873.00
2018-11-29T02:20:36.719Z,873.00
2018-11-29T02:21:36.975Z,873.00
2018-11-29T02:22:37.241Z,874.00
2018-11-29T02:23:37.494Z,873.00
2018-11-29T02:24:37.797Z,874.00
2018-11-29T02:25:38.097Z,873.00
2018-11-29T02:26:38.478Z,873.00
2018-11-29T02:27:38.839Z,873.00
2018-11-29T02:28:39.128Z,873.00
2018-11-29T02:29:39.459Z,876.00
2018-11-29T02:30:39.732Z,876.00
2018-11-29T02:31:40.366Z,874.00
2018-11-29T02:32:40.683Z,874.00
2018-11-29T02:33:41.133Z,873.00
2018-11-29T02:34:41.408Z,873.00
2018-11-29T02:35:41.404Z,873.00
2018-11-29T02:36:41.901Z,873.00
2018-11-29T02:37:42.289Z,873.00
2018-11-29T02:38:42.666Z,873.00
2018-11-29T02:39:43.702Z,874.00
2018-11-29T02:40:44.037Z,874.00
2018-11-29T02:41:44.279Z,873.00
2018-11-29T02:41:52.713Z,873.00
2018-11-29T02:42:53.997Z,872.00
2018-11-29T02:43:54.280Z,873.00
2018-11-29T02:44:54.594Z,873.00
2018-11-29T02:45:55.009Z,872.00
2018-11-29T02:46:55.285Z,872.00
2018-11-29T02:47:55.642Z,871.00
2018-11-29T02:48:55.896Z,873.00
2018-11-29T02:49:56.293Z,873.00
2018-11-29T02:50:56.686Z,873.00
2018-11-29T02:51:56.962Z,873.00
2018-11-29T02:52:57.382Z,874.00
2018-11-29T02:53:57.635Z,879.00
2018-11-29T02:54:58.030Z,879.00
2018-11-29T02:55:58.110Z,876.00
2018-11-29T02:56:58.624Z,874.00
2018-11-29T02:57:58.727Z,874.00
2018-11-29T02:58:58.999Z,873.00
2018-11-29T02:59:59.325Z,873.00
2018-11-29T03:00:59.809Z,873.00
2018-11-29T03:02:00.136Z,873.00
2018-11-29T03:03:01.002Z,871.00
2018-11-29T03:04:01.363Z,871.00
2018-11-29T03:05:02.166Z,871.00
2018-11-29T03:06:02.239Z,871.00
2018-11-29T03:07:02.645Z,873.00
2018-11-29T03:08:02.979Z,871.00
2018-11-29T03:09:03.408Z,871.00
2018-11-29T03:10:03.905Z,871.00
2018-11-29T03:11:04.210Z,871.00
2018-11-29T03:12:04.465Z,871.00
2018-11-29T03:13:04.885Z,871.00
2018-11-29T03:14:05.197Z,871.00
2018-11-29T03:15:06.074Z,876.00
2018-11-29T03:16:06.507Z,874.00
2018-11-29T03:17:05.716Z,874.00
2018-11-29T03:18:07.164Z,873.00
2018-11-29T03:19:07.471Z,873.00
2018-11-29T03:20:08.492Z,872.00
2018-11-29T03:21:08.485Z,873.00
2018-11-29T03:22:08.829Z,876.00
2018-11-29T03:23:08.927Z,873.00
2018-11-29T03:24:09.329Z,873.00
2018-11-29T03:25:09.948Z,873.00
2018-11-29T03:25:18.319Z,872.00
2018-11-29T03:26:19.529Z,873.00
2018-11-29T03:27:20.047Z,873.00
2018-11-29T03:28:20.444Z,873.00
2018-11-29T03:29:20.961Z,872.00
2018-11-29T03:30:21.449Z,871.00
2018-11-29T03:31:20.728Z,874.00
2018-11-29T03:32:22.154Z,873.00
2018-11-29T03:33:22.562Z,874.00
2018-11-29T03:34:23.238Z,873.00
2018-11-29T03:35:23.683Z,871.00
2018-11-29T03:36:24.326Z,873.00
2018-11-29T03:37:24.745Z,872.00
2018-11-29T03:38:25.177Z,872.00
2018-11-29T03:39:25.643Z,871.00
2018-11-29T03:40:26.203Z,873.00
2018-11-29T03:41:26.586Z,874.00
2018-11-29T03:42:26.988Z,874.00
2018-11-29T03:43:27.422Z,874.00
2018-11-29T03:44:28.399Z,873.00
2018-11-29T03:45:29.211Z,874.00
2018-11-29T03:46:28.665Z,873.00
2018-11-29T03:47:30.083Z,874.00
2018-11-29T03:48:30.711Z,877.00
2018-11-29T03:49:31.616Z,874.00
2018-11-29T03:50:32.030Z,874.00
2018-11-29T03:51:32.383Z,873.00
2018-11-29T03:52:32.858Z,873.00
2018-11-29T03:53:33.290Z,873.00
2018-11-29T03:54:33.860Z,873.00
2018-11-29T03:55:34.468Z,873.00
2018-11-29T03:56:35.101Z,872.00
2018-11-29T03:57:35.753Z,873.00
2018-11-29T03:58:36.120Z,872.00
2018-11-29T03:59:36.841Z,871.00
2018-11-29T04:00:37.392Z,871.00
2018-11-29T04:01:37.841Z,871.00
2018-11-29T04:02:38.426Z,871.00
2018-11-29T04:03:38.797Z,871.00
2018-11-29T04:04:39.302Z,873.00
2018-11-29T04:05:39.953Z,873.00
2018-11-29T04:06:40.679Z,873.00
2018-11-29T04:07:40.964Z,873.00
2018-11-29T04:08:41.520Z,873.00
2018-11-29T04:09:42.029Z,874.00
2018-11-29T04:10:42.360Z,873.00
2018-11-29T04:10:50.697Z,873.00
2018-11-29T04:11:52.037Z,872.00
2018-11-29T04:12:52.433Z,872.00
2018-11-29T04:13:52.784Z,871.00
2018-11-29T04:14:53.476Z,873.00
2018-11-29T04:15:53.796Z,874.00
2018-11-29T04:16:54.217Z,873.00
2018-11-29T04:17:55.038Z,874.00
2018-11-29T04:19:04.226Z,873.00
2018-11-29T04:19:55.727Z,874.00
2018-11-29T04:20:56.141Z,873.00
2018-11-29T04:21:56.735Z,872.00
2018-11-29T04:22:57.144Z,873.00
2018-11-29T04:23:57.468Z,872.00
2018-11-29T04:24:58.043Z,873.00
2018-11-29T04:25:58.537Z,873.00
2018-11-29T04:26:59.013Z,873.00
2018-11-29T04:27:59.593Z,873.00
2018-11-29T04:29:00.381Z,873.00
2018-11-29T04:30:00.776Z,874.00
2018-11-29T04:31:01.346Z,873.00
2018-11-29T04:32:01.976Z,873.00
2018-11-29T04:33:02.327Z,873.00
2018-11-29T04:34:02.654Z,871.00
2018-11-29T04:35:03.293Z,873.00
2018-11-29T04:36:03.715Z,873.00
2018-11-29T04:37:04.185Z,871.00
2018-11-29T04:38:04.684Z,872.00
2018-11-29T04:39:05.166Z,873.00
2018-11-29T04:40:05.637Z,873.00
2018-11-29T04:41:06.366Z,873.00
2018-11-29T04:42:06.835Z,873.00
2018-11-29T04:43:07.516Z,872.00
2018-11-29T04:44:08.143Z,873.00
2018-11-29T04:45:08.461Z,873.00
2018-11-29T04:46:08.962Z,873.00
2018-11-29T04:47:09.334Z,873.00
2018-11-29T04:48:10.150Z,873.00
2018-11-29T04:49:09.680Z,873.00
2018-11-29T04:50:11.075Z,873.00
2018-11-29T04:51:11.447Z,873.00
2018-11-29T04:52:12.009Z,873.00
2018-11-29T04:53:12.572Z,873.00
2018-11-29T04:54:13.413Z,873.00
2018-11-29T04:55:14.027Z,874.00
2018-11-29T04:56:14.417Z,874.00
2018-11-29T04:56:23.341Z,874.00
2018-11-29T04:57:24.949Z,874.00
2018-11-29T04:58:25.365Z,873.00
2018-11-29T04:59:25.703Z,873.00
2018-11-29T05:00:26.053Z,876.00
2018-11-29T05:01:26.682Z,876.00
2018-11-29T05:02:27.083Z,876.00
2018-11-29T05:03:27.543Z,874.00
2018-11-29T05:04:28.222Z,874.00
2018-11-29T05:05:28.375Z,874.00
2018-11-29T05:06:29.175Z,874.00
2018-11-29T05:07:29.566Z,874.00
2018-11-29T05:08:30.107Z,874.00
2018-11-29T05:09:30.479Z,874.00
2018-11-29T05:10:30.808Z,874.00
2018-11-29T05:11:31.205Z,874.00
2018-11-29T05:12:31.635Z,874.00
2018-11-29T05:13:32.024Z,876.00
2018-11-29T05:14:32.712Z,878.00
2018-11-29T05:15:33.045Z,876.00
2018-11-29T05:16:33.422Z,876.00
2018-11-29T05:17:33.900Z,876.00
2018-11-29T05:18:34.473Z,876.00
2018-11-29T05:19:34.798Z,874.00
2018-11-29T05:20:35.184Z,874.00
2018-11-29T05:21:35.924Z,874.00
2018-11-29T05:22:36.268Z,874.00
2018-11-29T05:23:36.706Z,874.00
2018-11-29T05:24:37.038Z,874.00
2018-11-29T05:25:37.418Z,874.00
2018-11-29T05:26:38.076Z,874.00
2018-11-29T05:27:38.509Z,874.00
2018-11-29T05:28:38.622Z,874.00
2018-11-29T05:29:38.969Z,876.00
2018-11-29T05:30:39.357Z,877.00
2018-11-29T05:31:40.059Z,874.00
2018-11-29T05:32:40.478Z,876.00
2018-11-29T05:33:41.106Z,876.00
2018-11-29T05:34:41.465Z,874.00
2018-11-29T05:35:41.894Z,874.00
2018-11-29T05:36:42.663Z,876.00
2018-11-29T05:37:43.330Z,876.00
2018-11-29T05:38:43.758Z,874.00
2018-11-29T05:39:44.257Z,874.00
2018-11-29T05:40:44.645Z,876.00
2018-11-29T05:40:52.987Z,876.00
2018-11-29T05:41:54.506Z,876.00
2018-11-29T05:42:54.981Z,874.00
2018-11-29T05:43:55.387Z,876.00
2018-11-29T05:44:55.723Z,874.00
2018-11-29T05:45:56.104Z,874.00
2018-11-29T05:46:56.475Z,874.00
2018-11-29T05:47:56.871Z,873.00
2018-11-29T05:48:57.357Z,876.00
2018-11-29T05:49:57.773Z,878.00
2018-11-29T05:50:58.201Z,876.00
2018-11-29T05:51:58.839Z,877.00
2018-11-29T05:52:59.658Z,867.00
2018-11-29T05:54:00.279Z,876.00
2018-11-29T05:55:00.674Z,877.00
2018-11-29T05:56:01.064Z,877.00
2018-11-29T05:57:01.642Z,876.00
2018-11-29T05:58:02.123Z,876.00
2018-11-29T05:59:02.607Z,876.00
2018-11-29T06:00:03.023Z,876.00
2018-11-29T06:01:03.408Z,874.00
2018-11-29T06:02:04.065Z,874.00
2018-11-29T06:03:04.682Z,874.00
2018-11-29T06:04:05.462Z,879.00
2018-11-29T06:05:05.925Z,879.00
2018-11-29T06:06:06.655Z,879.00
2018-11-29T06:07:07.570Z,876.00
2018-11-29T06:08:07.988Z,876.00
2018-11-29T06:09:08.727Z,876.00
2018-11-29T06:10:09.051Z,876.00
2018-11-29T06:11:09.382Z,878.00
2018-11-29T06:12:09.750Z,879.00
2018-11-29T06:13:10.345Z,877.00
2018-11-29T06:14:10.881Z,877.00
2018-11-29T06:15:11.219Z,878.00
2018-11-29T06:16:11.884Z,879.00
2018-11-29T06:17:12.232Z,880.00
2018-11-29T06:18:12.608Z,880.00
2018-11-29T06:19:12.996Z,879.00
2018-11-29T06:20:13.551Z,879.00
2018-11-29T06:21:14.325Z,878.00
2018-11-29T06:22:14.767Z,877.00
2018-11-29T06:23:16.242Z,882.00
2018-11-29T06:24:15.808Z,881.00
2018-11-29T06:24:24.850Z,880.00
2018-11-29T06:25:28.489Z,880.00
2018-11-29T06:26:25.207Z,879.00
2018-11-29T06:27:26.588Z,879.00
2018-11-29T06:28:27.295Z,879.00
2018-11-29T06:29:27.817Z,878.00
2018-11-29T06:30:28.326Z,878.00
2018-11-29T06:31:28.770Z,881.00
2018-11-29T06:32:29.286Z,882.00
2018-11-29T06:33:29.657Z,880.00
2018-11-29T06:34:30.324Z,879.00
2018-11-29T06:35:30.545Z,880.00
2018-11-29T06:36:31.035Z,879.00
2018-11-29T06:37:31.878Z,878.00
2018-11-29T06:38:32.374Z,878.00
2018-11-29T06:39:33.106Z,878.00
2018-11-29T06:40:33.708Z,876.00
2018-11-29T06:41:34.209Z,876.00
2018-11-29T06:42:34.773Z,876.00
2018-11-29T06:43:35.213Z,876.00
2018-11-29T06:44:35.652Z,876.00
2018-11-29T06:45:36.056Z,876.00
2018-11-29T06:46:36.451Z,874.00
2018-11-29T06:47:36.844Z,876.00
2018-11-29T06:48:37.491Z,876.00
2018-11-29T06:49:37.845Z,876.00
2018-11-29T06:50:38.228Z,876.00
2018-11-29T06:51:38.684Z,876.00
2018-11-29T06:52:39.175Z,876.00
2018-11-29T06:53:39.667Z,876.00
2018-11-29T06:54:40.234Z,877.00
2018-11-29T06:55:40.588Z,876.00
2018-11-29T06:56:41.116Z,876.00
2018-11-29T06:57:41.494Z,874.00
2018-11-29T06:58:42.119Z,874.00
2018-11-29T06:59:42.592Z,874.00
2018-11-29T07:00:42.910Z,874.00
2018-11-29T07:01:43.281Z,874.00
2018-11-29T07:02:43.918Z,874.00
2018-11-29T07:03:44.326Z,876.00
2018-11-29T07:04:44.593Z,876.00
2018-11-29T07:05:45.416Z,876.00
2018-11-29T07:06:45.856Z,876.00
2018-11-29T07:07:45.241Z,876.00
2018-11-29T07:08:47.050Z,874.00
2018-11-29T07:09:47.545Z,874.00
2018-11-29T07:09:56.475Z,874.00
2018-11-29T07:10:57.105Z,874.00
2018-11-29T07:11:57.535Z,874.00
2018-11-29T07:12:58.064Z,874.00
2018-11-29T07:13:58.643Z,876.00
2018-11-29T07:14:59.623Z,878.00
2018-11-29T07:16:00.318Z,876.00
2018-11-29T07:17:01.016Z,877.00
2018-11-29T07:18:01.948Z,876.00
2018-11-29T07:19:02.468Z,874.00
2018-11-29T07:20:03.018Z,874.00
2018-11-29T07:21:03.801Z,874.00
2018-11-29T07:22:04.767Z,874.00
2018-11-29T07:23:05.152Z,874.00
2018-11-29T07:24:05.568Z,874.00
2018-11-29T07:25:05.976Z,874.00
2018-11-29T07:26:06.436Z,874.00
2018-11-29T07:27:06.854Z,874.00
2018-11-29T07:28:07.235Z,874.00
2018-11-29T07:29:07.642Z,874.00
2018-11-29T07:30:08.285Z,874.00
2018-11-29T07:31:08.681Z,876.00
2018-11-29T07:32:09.411Z,876.00
2018-11-29T07:33:09.807Z,877.00
2018-11-29T07:34:10.324Z,877.00
2018-11-29T07:35:11.220Z,876.00
2018-11-29T07:36:11.825Z,879.00
2018-11-29T07:37:17.277Z,878.00
2018-11-29T07:38:11.258Z,877.00
2018-11-29T07:39:12.668Z,876.00
2018-11-29T07:40:13.098Z,876.00
2018-11-29T07:41:13.559Z,876.00
2018-11-29T07:42:14.040Z,874.00
2018-11-29T07:43:14.682Z,876.00
2018-11-29T07:44:15.345Z,876.00
2018-11-29T07:45:15.720Z,876.00
2018-11-29T07:46:17.303Z,874.00
2018-11-29T07:47:15.408Z,874.00
2018-11-29T07:48:16.841Z,874.00
2018-11-29T07:49:17.293Z,874.00
2018-11-29T07:50:17.745Z,874.00
2018-11-29T07:51:18.192Z,874.00
2018-11-29T07:52:18.793Z,874.00
2018-11-29T07:53:19.234Z,874.00
2018-11-29T07:54:19.727Z,876.00
2018-11-29T07:54:28.051Z,876.00
2018-11-29T07:55:28.897Z,874.00
2018-11-29T07:56:29.285Z,874.00
2018-11-29T07:57:29.712Z,876.00
2018-11-29T07:58:30.136Z,874.00
2018-11-29T07:59:30.656Z,874.00
2018-11-29T08:00:30.928Z,874.00
2018-11-29T08:01:31.398Z,876.00
2018-11-29T08:02:31.796Z,876.00
2018-11-29T08:03:32.357Z,877.00
2018-11-29T08:04:32.720Z,876.00
2018-11-29T08:05:33.199Z,876.00
2018-11-29T08:06:33.546Z,876.00
2018-11-29T08:07:33.924Z,876.00
2018-11-29T08:08:34.279Z,876.00
2018-11-29T08:09:34.809Z,876.00
2018-11-29T08:10:35.370Z,874.00
2018-11-29T08:11:36.035Z,876.00
2018-11-29T08:12:36.466Z,876.00
2018-11-29T08:13:36.884Z,876.00
2018-11-29T08:14:37.397Z,877.00
2018-11-29T08:15:38.984Z,876.00
2018-11-29T08:16:37.318Z,876.00
2018-11-29T08:17:38.669Z,876.00
2018-11-29T08:18:39.245Z,876.00
2018-11-29T08:19:39.607Z,874.00
2018-11-29T08:20:40.170Z,874.00
2018-11-29T08:21:40.996Z,876.00
2018-11-29T08:22:41.392Z,876.00
2018-11-29T08:23:41.861Z,878.00
2018-11-29T08:24:42.227Z,879.00
2018-11-29T08:25:42.717Z,878.00
2018-11-29T08:26:43.342Z,876.00
2018-11-29T08:27:43.902Z,877.00
2018-11-29T08:28:44.433Z,878.00
2018-11-29T08:29:44.967Z,878.00
2018-11-29T08:30:45.485Z,878.00
2018-11-29T08:31:45.907Z,876.00
2018-11-29T08:32:46.319Z,876.00
2018-11-29T08:33:46.954Z,876.00
2018-11-29T08:34:47.360Z,876.00
2018-11-29T08:35:47.813Z,874.00
2018-11-29T08:36:48.230Z,876.00
2018-11-29T08:37:48.593Z,874.00
2018-11-29T08:38:49.119Z,874.00
2018-11-29T08:39:49.556Z,874.00
2018-11-29T08:40:00.836Z,874.00
2018-11-29T08:41:02.150Z,874.00
2018-11-29T08:42:02.625Z,874.00
2018-11-29T08:43:02.979Z,874.00
2018-11-29T08:44:03.490Z,874.00
2018-11-29T08:45:03.903Z,874.00
2018-11-29T08:46:04.246Z,873.00
2018-11-29T08:47:04.556Z,873.00
2018-11-29T08:48:04.061Z,873.00
2018-11-29T08:49:05.350Z,874.00
2018-11-29T08:50:06.175Z,874.00
2018-11-29T08:51:06.561Z,874.00
2018-11-29T08:52:07.006Z,876.00
2018-11-29T08:53:07.120Z,874.00
2018-11-29T08:54:07.486Z,874.00
2018-11-29T08:55:08.291Z,874.00
2018-11-29T08:56:08.873Z,873.00
2018-11-29T08:57:09.433Z,873.00
2018-11-29T08:58:10.034Z,874.00
2018-11-29T08:59:10.440Z,873.00
2018-11-29T09:00:10.894Z,874.00
2018-11-29T09:01:11.295Z,874.00
2018-11-29T09:02:11.617Z,874.00
2018-11-29T09:03:12.139Z,873.00
2018-11-29T09:04:12.522Z,874.00
2018-11-29T09:05:13.041Z,874.00
2018-11-29T09:06:13.151Z,876.00
2018-11-29T09:07:13.772Z,876.00
2018-11-29T09:08:14.492Z,874.00
2018-11-29T09:09:14.823Z,874.00
2018-11-29T09:10:15.228Z,874.00
2018-11-29T09:11:15.714Z,873.00
2018-11-29T09:12:16.333Z,874.00
2018-11-29T09:13:16.926Z,874.00
2018-11-29T09:14:17.466Z,874.00
2018-11-29T09:15:18.155Z,873.00
2018-11-29T09:16:18.660Z,872.00
2018-11-29T09:17:19.154Z,873.00
2018-11-29T09:18:19.632Z,871.00
2018-11-29T09:19:20.153Z,871.00
2018-11-29T09:20:20.619Z,871.00
2018-11-29T09:21:21.007Z,871.00
2018-11-29T09:22:21.466Z,871.00
2018-11-29T09:23:21.841Z,871.00
2018-11-29T09:24:22.163Z,870.00
2018-11-29T09:25:22.722Z,871.00
2018-11-29T09:25:31.169Z,871.00
2018-11-29T09:26:32.547Z,871.00
2018-11-29T09:27:32.976Z,870.00
2018-11-29T09:28:33.529Z,871.00
2018-11-29T09:29:34.083Z,870.00
2018-11-29T09:30:34.636Z,864.00
2018-11-29T09:31:35.036Z,870.00
2018-11-29T09:32:35.477Z,870.00
2018-11-29T09:33:35.786Z,870.00
2018-11-29T09:34:36.301Z,871.00
2018-11-29T09:35:36.717Z,870.00
2018-11-29T09:36:37.242Z,870.00
2018-11-29T09:37:37.542Z,870.00
2018-11-29T09:38:38.090Z,869.00
2018-11-29T09:39:38.481Z,870.00
2018-11-29T09:40:39.157Z,869.00
2018-11-29T09:41:38.573Z,869.00
2018-11-29T09:42:39.979Z,869.00
2018-11-29T09:43:40.259Z,869.00
2018-11-29T09:44:40.755Z,869.00
2018-11-29T09:45:41.503Z,869.00
2018-11-29T09:46:41.898Z,869.00
2018-11-29T09:47:42.217Z,870.00
2018-11-29T09:48:42.664Z,869.00
2018-11-29T09:49:43.252Z,870.00
2018-11-29T09:50:43.762Z,871.00
2018-11-29T09:51:44.260Z,872.00
2018-11-29T09:52:44.846Z,871.00
2018-11-29T09:53:45.287Z,873.00
2018-11-29T09:54:45.743Z,871.00
2018-11-29T09:55:46.259Z,871.00
2018-11-29T09:56:46.558Z,870.00
2018-11-29T09:57:46.901Z,870.00
2018-11-29T09:58:47.277Z,871.00
2018-11-29T09:59:47.665Z,871.00
2018-11-29T10:00:48.162Z,870.00
2018-11-29T10:01:48.832Z,870.00
2018-11-29T10:02:49.334Z,870.00
2018-11-29T10:03:50.037Z,869.00
2018-11-29T10:04:50.454Z,869.00
2018-11-29T10:05:50.875Z,869.00
2018-11-29T10:06:51.286Z,869.00
2018-11-29T10:07:52.203Z,869.00
2018-11-29T10:08:52.724Z,869.00
2018-11-29T10:09:01.087Z,869.00
2018-11-29T10:10:02.455Z,869.00
2018-11-29T10:11:02.763Z,868.00
2018-11-29T10:12:03.130Z,869.00
2018-11-29T10:13:03.556Z,869.00
2018-11-29T10:14:03.900Z,869.00
2018-11-29T10:15:04.695Z,869.00
2018-11-29T10:16:05.391Z,869.00
2018-11-29T10:17:05.445Z,869.00
2018-11-29T10:18:05.821Z,869.00
2018-11-29T10:19:06.333Z,870.00
2018-11-29T10:20:07.014Z,869.00
2018-11-29T10:21:07.416Z,870.00
2018-11-29T10:22:08.051Z,870.00
2018-11-29T10:23:08.535Z,869.00
2018-11-29T10:24:09.057Z,869.00
2018-11-29T10:25:09.449Z,869.00
2018-11-29T10:26:10.039Z,870.00
2018-11-29T10:27:10.446Z,869.00
2018-11-29T10:28:10.906Z,869.00
2018-11-29T10:29:10.553Z,869.00
2018-11-29T10:30:12.129Z,869.00
2018-11-29T10:31:12.619Z,869.00
2018-11-29T10:32:13.315Z,869.00
2018-11-29T10:33:14.070Z,861.00
2018-11-29T10:34:14.798Z,870.00
2018-11-29T10:35:15.177Z,869.00
2018-11-29T10:36:15.631Z,869.00
2018-11-29T10:37:16.073Z,869.00
2018-11-29T10:38:16.523Z,868.00
2018-11-29T10:39:16.936Z,869.00
2018-11-29T10:40:17.338Z,869.00
2018-11-29T10:41:17.695Z,869.00
2018-11-29T10:42:18.073Z,869.00
2018-11-29T10:43:18.471Z,868.00
2018-11-29T10:44:18.905Z,869.00
2018-11-29T10:45:19.035Z,868.00
2018-11-29T10:46:19.534Z,868.00
2018-11-29T10:47:19.928Z,869.00
2018-11-29T10:48:20.608Z,869.00
2018-11-29T10:49:21.060Z,870.00
2018-11-29T10:50:21.625Z,869.00
2018-11-29T10:51:23.171Z,869.00
2018-11-29T10:52:21.612Z,869.00
2018-11-29T10:53:23.078Z,869.00
2018-11-29T10:54:23.489Z,869.00
2018-11-29T10:54:31.919Z,868.00
2018-11-29T10:55:32.697Z,868.00
2018-11-29T10:56:33.594Z,868.00
2018-11-29T10:57:33.944Z,868.00
2018-11-29T10:58:34.324Z,868.00
2018-11-29T10:59:34.808Z,868.00
2018-11-29T11:00:35.299Z,868.00
2018-11-29T11:01:35.996Z,867.00
2018-11-29T11:02:36.506Z,868.00
2018-11-29T11:03:37.506Z,867.00
2018-11-29T11:04:37.943Z,868.00
2018-11-29T11:05:38.410Z,868.00
2018-11-29T11:06:38.850Z,868.00
2018-11-29T11:07:39.661Z,867.00
2018-11-29T11:08:40.108Z,868.00
2018-11-29T11:09:40.417Z,868.00
2018-11-29T11:10:41.358Z,868.00
2018-11-29T11:11:41.695Z,868.00
2018-11-29T11:12:42.001Z,867.00
2018-11-29T11:13:42.481Z,868.00
2018-11-29T11:14:42.910Z,868.00
2018-11-29T11:15:43.331Z,867.00
2018-11-29T11:16:43.794Z,867.00
2018-11-29T11:17:44.342Z,867.00
2018-11-29T11:18:45.147Z,867.00
2018-11-29T11:19:45.754Z,867.00
2018-11-29T11:20:46.236Z,859.00
2018-11-29T11:21:46.882Z,859.00
2018-11-29T11:22:47.568Z,867.00
2018-11-29T11:23:48.211Z,867.00
2018-11-29T11:24:48.816Z,868.00
2018-11-29T11:25:49.731Z,867.00
2018-11-29T11:26:50.492Z,868.00
2018-11-29T11:27:50.926Z,867.00
2018-11-29T11:28:51.475Z,868.00
2018-11-29T11:29:51.879Z,870.00
2018-11-29T11:30:52.575Z,869.00
2018-11-29T11:31:53.186Z,869.00
2018-11-29T11:32:53.601Z,869.00
2018-11-29T11:33:53.346Z,869.00
2018-11-29T11:34:55.027Z,869.00
2018-11-29T11:35:55.650Z,869.00
2018-11-29T11:36:56.017Z,868.00
2018-11-29T11:37:56.578Z,868.00
2018-11-29T11:38:56.988Z,868.00
2018-11-29T11:39:57.499Z,868.00
2018-11-29T11:40:05.732Z,868.00
2018-11-29T11:41:07.097Z,868.00
2018-11-29T11:42:07.510Z,868.00
2018-11-29T11:43:08.077Z,869.00
2018-11-29T11:44:07.474Z,869.00
2018-11-29T11:45:09.214Z,869.00
2018-11-29T11:46:09.596Z,869.00
2018-11-29T11:47:10.151Z,870.00
2018-11-29T11:48:10.559Z,870.00
2018-11-29T11:49:11.281Z,869.00
2018-11-29T11:50:11.775Z,869.00
2018-11-29T11:51:11.865Z,869.00
2018-11-29T11:52:12.075Z,873.00
2018-11-29T11:53:12.821Z,871.00
2018-11-29T11:54:12.840Z,871.00
2018-11-29T11:55:19.026Z,871.00
2018-11-29T11:56:12.736Z,870.00
2018-11-29T11:57:14.203Z,871.00
2018-11-29T11:58:14.693Z,872.00
2018-11-29T11:59:15.183Z,871.00
2018-11-29T12:00:15.572Z,871.00
2018-11-29T12:01:15.977Z,871.00
2018-11-29T12:02:16.259Z,872.00
2018-11-29T12:03:16.637Z,871.00
2018-11-29T12:04:17.196Z,870.00
2018-11-29T12:05:17.536Z,871.00
2018-11-29T12:06:18.040Z,873.00
2018-11-29T12:07:18.556Z,873.00
2018-11-29T12:08:19.077Z,871.00
2018-11-29T12:09:19.528Z,871.00
2018-11-29T12:10:20.169Z,871.00
2018-11-29T12:11:20.657Z,872.00
2018-11-29T12:12:21.109Z,871.00
2018-11-29T12:13:21.513Z,871.00
2018-11-29T12:14:22.216Z,874.00
2018-11-29T12:15:22.523Z,876.00
2018-11-29T12:16:23.249Z,877.00
2018-11-29T12:17:23.628Z,874.00
2018-11-29T12:18:24.071Z,873.00
2018-11-29T12:19:24.552Z,873.00
2018-11-29T12:20:25.169Z,871.00